createdAt,value
2018-12-06T00:02:28.185Z,85.80
2018-12-06T00:04:57.348Z,84.10
2018-12-06T00:07:26.550Z,84.70
2018-12-06T00:09:55.693Z,84.70
2018-12-06T00:12:24.911Z,84.50
2018-12-06T00:18:38.478Z,84.70
2018-12-06T00:21:07.820Z,85.50
2018-12-06T00:23:37.026Z,86.20
2018-12-06T00:26:06.259Z,87.40
2018-12-06T00:28:35.497Z,87.60
2018-12-06T00:31:04.672Z,87.70
2018-12-06T00:33:33.881Z,87.90
2018-12-06T00:36:03.143Z,87.50
2018-12-06T00:38:32.872Z,87.10
2018-12-06T00:41:02.101Z,87.00
2018-12-06T00:43:31.409Z,87.20
2018-12-06T00:46:00.770Z,88.50
2018-12-06T00:48:30.155Z,89.30
2018-12-06T00:50:59.369Z,89.80
2018-12-06T00:53:28.597Z,90.10
2018-12-06T00:55:57.860Z,90.30
2018-12-06T00:58:27.187Z,90.20
2018-12-06T01:00:56.647Z,90.20
2018-12-06T01:03:25.835Z,90.60
2018-12-06T01:05:55.141Z,91.30
2018-12-06T01:08:24.467Z,91.50
2018-12-06T01:10:53.630Z,92.00
2018-12-06T01:13:22.842Z,92.60
2018-12-06T01:15:52.218Z,92.90
2018-12-06T01:18:21.470Z,92.90
2018-12-06T01:20:50.718Z,93.20
2018-12-06T01:23:20.148Z,93.40
2018-12-06T01:25:49.332Z,94.30
2018-12-06T01:28:18.557Z,94.10
2018-12-06T01:30:47.866Z,94.40
2018-12-06T01:33:17.046Z,95.10
2018-12-06T01:35:46.434Z,95.70
2018-12-06T01:38:15.661Z,95.80
2018-12-06T01:40:44.814Z,96.60
2018-12-06T01:43:14.029Z,97.10
2018-12-06T01:45:43.520Z,98.10
2018-12-06T01:48:12.902Z,98.40
2018-12-06T01:50:43.185Z,98.70
2018-12-06T01:53:12.380Z,99.70
2018-12-06T01:55:41.602Z,99.90
2018-12-06T01:58:10.757Z,99.90
2018-12-06T02:00:40.033Z,99.90
2018-12-06T02:03:09.295Z,99.90
2018-12-06T02:05:38.504Z,99.90
2018-12-06T02:08:07.956Z,99.90
2018-12-06T02:10:37.221Z,99.90
2018-12-06T02:13:06.372Z,99.90
2018-12-06T02:15:35.538Z,99.90
2018-12-06T02:18:04.732Z,99.90
2018-12-06T02:20:33.883Z,99.90
2018-12-06T02:23:03.102Z,99.90
2018-12-06T02:25:32.259Z,99.90
2018-12-06T02:28:01.453Z,99.90
2018-12-06T02:30:30.923Z,99.90
2018-12-06T02:33:00.125Z,99.90
2018-12-06T02:35:29.326Z,99.90
2018-12-06T02:37:58.502Z,99.90
2018-12-06T02:40:27.677Z,99.90
2018-12-06T02:42:56.814Z,99.90
2018-12-06T02:45:25.976Z,99.90
2018-12-06T02:47:55.170Z,99.90
2018-12-06T02:50:24.362Z,99.90
2018-12-06T02:52:53.952Z,99.90
2018-12-06T02:55:23.160Z,99.90
2018-12-06T02:57:52.352Z,99.90
2018-12-06T03:00:21.532Z,99.90
2018-12-06T03:02:50.725Z,99.90
2018-12-06T03:05:19.894Z,99.90
2018-12-06T03:07:49.097Z,99.90
2018-12-06T03:10:18.320Z,99.90
2018-12-06T03:12:47.509Z,99.90
2018-12-06T03:15:16.769Z,99.90
2018-12-06T03:17:45.926Z,99.90
2018-12-06T03:20:15.124Z,99.90
2018-12-06T03:22:44.278Z,99.90
2018-12-06T03:25:13.450Z,99.90
2018-12-06T03:27:42.615Z,99.90
2018-12-06T03:30:11.761Z,99.90
2018-12-06T03:32:40.963Z,99.90
2018-12-06T03:35:10.146Z,99.90
2018-12-06T03:37:39.517Z,99.90
2018-12-06T03:40:08.801Z,99.90
2018-12-06T03:42:37.958Z,99.90
2018-12-06T03:45:07.274Z,99.90
2018-12-06T03:47:36.453Z,99.90
2018-12-06T03:50:06.484Z,99.90
2018-12-06T03:52:35.649Z,99.90
2018-12-06T03:55:05.368Z,99.90
2018-12-06T03:57:34.573Z,99.90
2018-12-06T04:00:03.898Z,99.90
2018-12-06T04:02:33.107Z,99.90
2018-12-06T04:05:02.336Z,99.90
2018-12-06T04:07:31.516Z,99.90
2018-12-06T04:10:01.699Z,99.90
2018-12-06T04:12:33.370Z,99.90
2018-12-06T04:15:05.247Z,99.90
2018-12-06T04:17:34.427Z,99.90
2018-12-06T04:20:03.891Z,99.90
2018-12-06T04:22:33.060Z,99.90
2018-12-06T04:25:02.242Z,99.90
2018-12-06T04:27:31.384Z,99.90
2018-12-06T04:30:00.577Z,99.90
2018-12-06T04:32:29.741Z,99.90
2018-12-06T04:34:58.931Z,99.90
2018-12-06T04:37:28.120Z,99.90
2018-12-06T04:39:57.343Z,99.90
2018-12-06T04:42:26.585Z,99.90
2018-12-06T04:44:55.805Z,99.90
2018-12-06T04:47:24.950Z,99.90
2018-12-06T04:49:54.165Z,99.90
2018-12-06T04:52:23.399Z,99.90
2018-12-06T04:54:52.549Z,99.90
2018-12-06T04:57:22.442Z,99.90
2018-12-06T04:59:51.635Z,99.90
2018-12-06T05:02:20.790Z,99.90
2018-12-06T05:04:49.975Z,99.90
2018-12-06T05:07:19.165Z,99.90
2018-12-06T05:09:48.362Z,99.90
2018-12-06T05:12:17.526Z,99.90
2018-12-06T05:14:46.690Z,99.90
2018-12-06T05:17:15.894Z,99.90
2018-12-06T05:19:45.076Z,99.90
2018-12-06T05:22:14.209Z,99.90
2018-12-06T05:24:43.392Z,99.90
2018-12-06T05:27:12.803Z,99.90
2018-12-06T05:29:41.992Z,99.90
2018-12-06T05:32:11.142Z,99.90
2018-12-06T05:34:40.339Z,99.90
2018-12-06T05:37:09.532Z,99.90
2018-12-06T05:39:38.676Z,99.90
2018-12-06T05:42:07.806Z,99.90
2018-12-06T05:44:36.952Z,99.90
2018-12-06T05:47:06.116Z,99.90
2018-12-06T05:49:35.596Z,99.90
2018-12-06T05:52:04.775Z,99.90
2018-12-06T05:54:33.958Z,99.90
2018-12-06T05:57:03.173Z,99.90
2018-12-06T05:59:32.554Z,99.90
2018-12-06T06:02:01.719Z,99.90
2018-12-06T06:04:30.884Z,99.90
2018-12-06T06:07:02.254Z,99.90
2018-12-06T06:09:31.465Z,99.90
2018-12-06T06:12:00.761Z,99.90
2018-12-06T06:14:29.910Z,99.90
2018-12-06T06:16:59.056Z,99.90
2018-12-06T06:19:28.366Z,99.90
2018-12-06T06:21:57.550Z,99.90
2018-12-06T06:24:26.732Z,99.90
2018-12-06T06:26:55.951Z,99.90
2018-12-06T06:29:25.097Z,99.90
2018-12-06T06:31:54.281Z,99.90
2018-12-06T06:34:23.569Z,99.90
2018-12-06T06:36:52.731Z,99.90
2018-12-06T06:39:22.451Z,99.90
2018-12-06T06:41:51.606Z,99.90
2018-12-06T06:44:20.795Z,99.90
2018-12-06T06:46:49.963Z,99.90
2018-12-06T06:49:19.165Z,99.90
2018-12-06T06:51:48.343Z,99.90
2018-12-06T06:54:17.544Z,99.90
2018-12-06T06:56:46.991Z,99.90
2018-12-06T06:59:16.191Z,99.90
2018-12-06T07:01:45.777Z,99.90
2018-12-06T07:04:14.955Z,99.90
2018-12-06T07:06:44.117Z,99.90
2018-12-06T07:09:13.343Z,99.90
2018-12-06T07:11:42.650Z,99.90
2018-12-06T07:14:11.844Z,99.90
2018-12-06T07:16:41.096Z,99.90
2018-12-06T07:19:10.238Z,99.90
2018-12-06T07:21:39.416Z,99.90
2018-12-06T07:24:08.602Z,99.90
2018-12-06T07:26:37.826Z,99.90
2018-12-06T07:29:06.998Z,99.90
2018-12-06T07:31:36.162Z,99.90
2018-12-06T07:34:05.373Z,99.90
2018-12-06T07:36:34.526Z,99.90
2018-12-06T07:39:05.631Z,99.90
2018-12-06T07:41:34.921Z,99.90
2018-12-06T07:44:04.119Z,99.90
2018-12-06T07:46:33.273Z,99.90
2018-12-06T07:49:02.450Z,99.90
2018-12-06T07:51:31.609Z,99.90
2018-12-06T07:54:01.015Z,99.90
2018-12-06T07:56:30.189Z,99.90
2018-12-06T07:58:59.354Z,99.90
2018-12-06T08:01:28.782Z,99.90
2018-12-06T08:03:58.193Z,99.90
2018-12-06T08:06:27.367Z,99.90
2018-12-06T08:08:56.562Z,99.90
2018-12-06T08:11:25.777Z,99.90
2018-12-06T08:13:54.956Z,99.90
2018-12-06T08:16:24.172Z,99.90
2018-12-06T08:18:53.330Z,99.90
2018-12-06T08:21:22.629Z,99.90
2018-12-06T08:23:51.829Z,99.90
2018-12-06T08:26:21.029Z,99.90
2018-12-06T08:28:50.229Z,99.90
2018-12-06T08:31:19.464Z,99.90
2018-12-06T08:33:48.632Z,99.90
2018-12-06T08:36:17.831Z,99.90
2018-12-06T08:38:46.982Z,99.90
2018-12-06T08:41:16.172Z,99.90
2018-12-06T08:43:45.620Z,99.90
2018-12-06T08:46:14.793Z,99.90
2018-12-06T08:48:43.950Z,99.90
2018-12-06T08:51:13.164Z,99.90
2018-12-06T08:53:42.379Z,99.90
2018-12-06T08:56:11.550Z,99.90
2018-12-06T08:58:40.720Z,99.90
2018-12-06T09:01:09.923Z,99.90
2018-12-06T09:03:39.126Z,99.90
2018-12-06T09:06:08.734Z,99.90
2018-12-06T09:08:37.925Z,99.90
2018-12-06T09:11:07.142Z,99.90
2018-12-06T09:13:36.351Z,99.90
2018-12-06T09:16:05.577Z,99.90
2018-12-06T09:18:34.783Z,99.90
2018-12-06T09:21:03.963Z,99.90
2018-12-06T09:23:33.106Z,99.90
2018-12-06T09:26:02.324Z,99.90
2018-12-06T09:28:31.806Z,99.90
2018-12-06T09:31:01.241Z,99.90
2018-12-06T09:33:30.632Z,99.90
2018-12-06T09:35:59.787Z,99.90
2018-12-06T09:38:29.006Z,99.90
2018-12-06T09:40:58.216Z,99.90
2018-12-06T09:43:27.370Z,99.90
2018-12-06T09:45:56.575Z,99.90
2018-12-06T09:48:25.760Z,99.90
2018-12-06T09:50:55.206Z,99.90
2018-12-06T09:53:24.497Z,99.90
2018-12-06T09:55:53.669Z,99.90
2018-12-06T09:58:22.833Z,99.90
2018-12-06T10:00:52.078Z,99.90
2018-12-06T10:03:21.309Z,99.90
2018-12-06T10:05:50.502Z,99.90
2018-12-06T10:08:20.232Z,99.90
2018-12-06T10:10:49.446Z,99.90
2018-12-06T10:13:18.810Z,99.90
2018-12-06T10:15:48.041Z,99.90
2018-12-06T10:18:17.284Z,99.90
2018-12-06T10:20:46.507Z,99.90
2018-12-06T10:23:15.692Z,99.90
2018-12-06T10:25:44.838Z,99.90
2018-12-06T10:28:14.003Z,99.90
2018-12-06T10:30:43.198Z,99.90
2018-12-06T10:33:12.352Z,99.90
2018-12-06T10:35:41.672Z,99.90
2018-12-06T10:38:10.870Z,99.90
2018-12-06T10:40:40.093Z,99.90
2018-12-06T10:43:09.417Z,99.90
2018-12-06T10:45:38.585Z,99.90
2018-12-06T10:48:07.750Z,99.90
2018-12-06T10:50:36.957Z,99.90
2018-12-06T10:53:06.173Z,99.90
2018-12-06T10:55:35.382Z,99.90
2018-12-06T10:58:04.740Z,99.90
2018-12-06T11:00:39.270Z,99.90
2018-12-06T11:03:14.812Z,99.90
2018-12-06T11:05:43.994Z,99.90
2018-12-06T11:08:13.189Z,99.90
2018-12-06T11:10:42.729Z,99.90
2018-12-06T11:13:11.886Z,99.90
2018-12-06T11:15:41.054Z,99.90
2018-12-06T11:18:10.570Z,99.90
2018-12-06T11:20:39.794Z,99.90
2018-12-06T11:23:09.018Z,99.90
2018-12-06T11:25:38.228Z,99.90
2018-12-06T11:28:07.404Z,99.90
2018-12-06T11:30:36.602Z,99.90
2018-12-06T11:33:05.772Z,99.90
2018-12-06T11:35:34.937Z,99.90
2018-12-06T11:38:04.145Z,99.90
2018-12-06T11:40:33.599Z,99.90
2018-12-06T11:43:02.979Z,99.90
2018-12-06T11:45:32.180Z,99.90
2018-12-06T11:48:01.359Z,99.90
2018-12-06T11:50:30.531Z,99.90
2018-12-06T11:52:59.722Z,99.90
2018-12-06T11:55:29.006Z,99.90
2018-12-06T11:57:58.346Z,99.90
2018-12-06T12:00:27.606Z,99.90
2018-12-06T12:02:56.946Z,99.90
2018-12-06T12:05:26.104Z,99.90
2018-12-06T12:07:55.305Z,99.90
2018-12-06T12:10:24.521Z,99.90
2018-12-06T12:12:55.251Z,99.90
2018-12-06T12:15:24.410Z,99.90
2018-12-06T12:17:53.599Z,99.90
2018-12-06T12:20:22.829Z,99.90
2018-12-06T12:22:51.990Z,99.90
2018-12-06T12:25:21.414Z,99.90
2018-12-06T12:27:50.572Z,99.90
2018-12-06T12:30:19.792Z,99.90
2018-12-06T12:32:49.006Z,99.90
2018-12-06T12:35:18.930Z,99.90
2018-12-06T12:37:48.205Z,99.90
2018-12-06T12:40:17.953Z,99.90
2018-12-06T12:42:47.161Z,99.90
2018-12-06T12:45:16.433Z,99.90
2018-12-06T12:47:46.963Z,99.90
2018-12-06T12:50:16.153Z,99.90
2018-12-06T12:52:45.306Z,99.90
2018-12-06T12:55:14.492Z,99.90
2018-12-06T12:57:43.678Z,99.90
2018-12-06T13:00:12.885Z,99.90
2018-12-06T13:02:42.093Z,99.90
2018-12-06T13:05:11.288Z,99.90
2018-12-06T13:07:40.440Z,99.90
2018-12-06T13:10:09.915Z,99.90
2018-12-06T13:12:39.319Z,99.90
2018-12-06T13:15:08.816Z,99.90
2018-12-06T13:17:38.041Z,99.90
2018-12-06T13:20:07.634Z,99.90
2018-12-06T13:22:36.818Z,99.90
2018-12-06T13:25:06.437Z,99.90
2018-12-06T13:27:35.724Z,99.90
2018-12-06T13:30:05.848Z,99.90
2018-12-06T13:32:35.216Z,99.90
2018-12-06T13:35:04.762Z,99.90
2018-12-06T13:37:33.972Z,99.90
2018-12-06T13:40:03.174Z,99.90
2018-12-06T13:42:32.386Z,99.90
2018-12-06T13:45:01.598Z,99.90
2018-12-06T13:47:30.805Z,99.90
2018-12-06T13:50:00.005Z,99.90
2018-12-06T13:52:29.378Z,99.90
2018-12-06T13:54:58.541Z,99.90
2018-12-06T13:57:28.359Z,99.90
2018-12-06T13:59:57.559Z,99.90
2018-12-06T14:02:26.987Z,99.90
2018-12-06T14:04:56.714Z,99.90
2018-12-06T14:07:27.629Z,99.90
2018-12-06T14:09:56.927Z,99.90
2018-12-06T14:12:27.142Z,99.90
2018-12-06T14:14:56.369Z,99.90
2018-12-06T14:17:25.886Z,99.90
2018-12-06T14:19:55.092Z,99.90
2018-12-06T14:22:24.991Z,99.90
2018-12-06T14:24:56.569Z,99.90
2018-12-06T14:27:25.874Z,99.90
2018-12-06T14:29:55.120Z,99.90
2018-12-06T14:32:24.418Z,99.90
2018-12-06T14:34:53.704Z,99.90
2018-12-06T14:37:22.941Z,99.90
2018-12-06T14:39:52.153Z,99.90
2018-12-06T14:42:21.365Z,99.90
2018-12-06T14:44:50.748Z,99.90
2018-12-06T14:47:19.936Z,98.90
2018-12-06T14:49:49.189Z,97.90
2018-12-06T14:52:18.356Z,96.30
2018-12-06T14:54:47.627Z,94.60
2018-12-06T14:57:16.917Z,92.60
2018-12-06T14:59:46.142Z,91.00
2018-12-06T15:02:15.374Z,88.20
2018-12-06T15:04:44.570Z,87.50
2018-12-06T15:07:13.775Z,84.90
2018-12-06T15:09:43.165Z,81.90
2018-12-06T15:12:12.424Z,78.80
2018-12-06T15:14:41.635Z,79.80
2018-12-06T15:17:10.896Z,79.10
2018-12-06T15:19:40.656Z,76.70
2018-12-06T15:22:09.832Z,76.20
2018-12-06T15:24:39.147Z,73.30
2018-12-06T15:27:08.397Z,72.90
2018-12-06T15:29:37.550Z,70.50
2018-12-06T15:32:06.944Z,69.40
2018-12-06T15:34:36.160Z,68.60
2018-12-06T15:37:05.656Z,66.10
2018-12-06T15:39:35.062Z,65.00
2018-12-06T15:42:04.842Z,66.40
2018-12-06T15:44:34.239Z,67.00
2018-12-06T15:47:03.628Z,65.10
2018-12-06T15:49:32.864Z,62.80
2018-12-06T15:52:02.101Z,61.80
2018-12-06T15:54:31.377Z,60.60
2018-12-06T15:57:00.700Z,59.00
2018-12-06T15:59:29.966Z,59.50
2018-12-06T16:01:59.330Z,58.70
2018-12-06T16:04:28.702Z,56.90
2018-12-06T16:06:58.118Z,57.90
2018-12-06T16:09:27.329Z,57.60
2018-12-06T16:11:57.623Z,55.80
2018-12-06T16:14:26.894Z,56.90
2018-12-06T16:16:56.071Z,56.70
2018-12-06T16:19:25.337Z,57.90
2018-12-06T16:21:55.159Z,57.30
2018-12-06T16:24:24.690Z,57.10
2018-12-06T16:26:54.342Z,57.70
2018-12-06T16:29:23.615Z,55.40
2018-12-06T16:31:53.645Z,55.30
2018-12-06T16:34:22.966Z,54.50
2018-12-06T16:36:52.276Z,55.40
2018-12-06T16:39:21.484Z,55.30
2018-12-06T16:41:50.693Z,54.10
2018-12-06T16:44:20.001Z,52.90
2018-12-06T16:46:49.385Z,52.60
2018-12-06T16:49:18.697Z,53.60
2018-12-06T16:51:48.215Z,53.00
2018-12-06T16:54:17.424Z,52.70
2018-12-06T16:56:46.969Z,53.50
2018-12-06T16:59:16.448Z,54.90
2018-12-06T17:01:46.004Z,56.30
2018-12-06T17:04:16.038Z,56.30
2018-12-06T17:06:45.822Z,55.80
2018-12-06T17:09:15.100Z,55.20
2018-12-06T17:11:44.755Z,54.10
2018-12-06T17:14:14.095Z,53.20
2018-12-06T17:16:43.824Z,53.10
2018-12-06T17:19:13.136Z,54.30
2018-12-06T17:21:42.312Z,55.10
2018-12-06T17:24:11.886Z,56.00
2018-12-06T17:26:41.073Z,56.00
2018-12-06T17:29:10.485Z,56.90
2018-12-06T17:31:39.962Z,56.20
2018-12-06T17:34:09.343Z,55.50
2018-12-06T17:36:38.614Z,54.60
2018-12-06T17:39:08.210Z,55.50
2018-12-06T17:41:37.771Z,54.70
2018-12-06T17:44:07.739Z,55.80
2018-12-06T17:46:37.537Z,56.10
2018-12-06T17:49:07.354Z,55.00
2018-12-06T17:51:36.698Z,53.60
2018-12-06T17:54:06.151Z,54.10
2018-12-06T17:56:35.402Z,54.20
2018-12-06T17:59:06.612Z,53.60
2018-12-06T18:01:36.330Z,53.40
2018-12-06T18:04:05.581Z,53.50
2018-12-06T18:06:34.992Z,54.60
2018-12-06T18:09:05.467Z,54.20
2018-12-06T18:11:35.052Z,53.40
2018-12-06T18:14:04.363Z,52.90
2018-12-06T18:16:33.596Z,53.20
2018-12-06T18:19:03.150Z,53.10
2018-12-06T18:21:32.450Z,52.60
2018-12-06T18:24:01.819Z,52.10
2018-12-06T18:26:31.493Z,52.70
2018-12-06T18:29:00.708Z,52.80
2018-12-06T18:31:30.043Z,52.20
2018-12-06T18:33:59.514Z,51.10
2018-12-06T18:36:28.771Z,50.10
2018-12-06T18:38:58.018Z,49.30
2018-12-06T18:41:27.825Z,49.40
2018-12-06T18:43:57.060Z,49.60
2018-12-06T18:46:26.408Z,49.70
2018-12-06T18:48:55.872Z,49.90
2018-12-06T18:51:25.390Z,49.60
2018-12-06T18:53:54.928Z,49.50
2018-12-06T18:56:24.481Z,48.90
2018-12-06T18:58:54.315Z,49.70
2018-12-06T19:01:24.375Z,49.50
2018-12-06T19:03:53.920Z,49.20
2018-12-06T19:06:23.957Z,49.20
2018-12-06T19:08:53.210Z,49.30
2018-12-06T19:11:22.795Z,49.00
2018-12-06T19:13:52.638Z,49.90
2018-12-06T19:16:22.593Z,49.40
2018-12-06T19:18:52.603Z,49.30
2018-12-06T19:21:22.518Z,48.60
2018-12-06T19:23:52.144Z,48.90
2018-12-06T19:26:21.412Z,49.30
2018-12-06T19:28:50.987Z,49.80
2018-12-06T19:31:20.272Z,49.80
2018-12-06T19:33:49.528Z,49.40
2018-12-06T19:36:19.424Z,49.90
2018-12-06T19:38:50.038Z,49.90
2018-12-06T19:41:19.478Z,49.80
2018-12-06T19:43:48.938Z,51.30
2018-12-06T19:46:19.071Z,51.60
2018-12-06T19:48:49.063Z,51.40
2018-12-06T19:51:18.749Z,51.90
2018-12-06T19:53:48.782Z,51.40
2018-12-06T19:56:18.199Z,52.20
2018-12-06T19:58:49.537Z,53.40
2018-12-06T20:01:19.108Z,53.50
2018-12-06T20:03:49.158Z,53.60
2018-12-06T20:06:20.295Z,52.40
2018-12-06T20:08:50.788Z,51.50
2018-12-06T20:11:20.424Z,51.70
2018-12-06T20:13:49.744Z,50.00
2018-12-06T20:16:19.335Z,51.60
2018-12-06T20:18:49.252Z,51.40
2018-12-06T20:21:18.987Z,51.50
2018-12-06T20:23:48.772Z,51.70
2018-12-06T20:26:18.101Z,52.00
2018-12-06T20:28:48.009Z,52.90
2018-12-06T20:31:17.781Z,52.30
2018-12-06T20:33:47.180Z,53.40
2018-12-06T20:36:17.118Z,54.30
2018-12-06T20:38:46.530Z,54.20
2018-12-06T20:41:15.897Z,55.30
2018-12-06T20:43:45.284Z,55.60
2018-12-06T20:46:14.500Z,57.30
2018-12-06T20:48:45.724Z,56.00
2018-12-06T20:51:15.087Z,55.70
2018-12-06T20:53:44.386Z,56.20
2018-12-06T20:56:13.546Z,56.90
2018-12-06T20:58:42.884Z,57.70
2018-12-06T21:01:12.358Z,56.40
2018-12-06T21:03:41.604Z,55.40
2018-12-06T21:06:10.825Z,56.00
2018-12-06T21:08:40.066Z,57.40
2018-12-06T21:11:09.474Z,58.90
2018-12-06T21:13:38.804Z,59.00
2018-12-06T21:16:08.303Z,58.70
2018-12-06T21:18:37.537Z,59.80
2018-12-06T21:21:06.765Z,60.50
2018-12-06T21:23:36.238Z,60.40
2018-12-06T21:26:05.610Z,59.60
2018-12-06T21:28:34.788Z,61.10
2018-12-06T21:31:04.299Z,61.10
2018-12-06T21:33:33.519Z,62.40
2018-12-06T21:36:02.779Z,63.20
2018-12-06T21:38:32.064Z,65.10
2018-12-06T21:41:01.238Z,64.30
2018-12-06T21:43:30.427Z,64.40
2018-12-06T21:45:59.845Z,64.50
2018-12-06T21:48:29.021Z,63.70
2018-12-06T21:50:58.283Z,64.60
2018-12-06T21:53:27.959Z,65.40
2018-12-06T21:55:57.273Z,66.70
2018-12-06T21:58:26.492Z,67.60
2018-12-06T22:00:55.803Z,67.40
2018-12-06T22:03:25.242Z,67.10
2018-12-06T22:05:54.457Z,67.40
2018-12-06T22:08:24.107Z,68.60
2018-12-06T22:10:53.332Z,70.10
2018-12-06T22:13:22.583Z,69.90
2018-12-06T22:15:51.938Z,70.80
2018-12-06T22:18:21.861Z,70.70
2018-12-06T22:20:51.171Z,72.00
2018-12-06T22:23:20.394Z,71.70
2018-12-06T22:25:49.637Z,71.40
2018-12-06T22:28:19.643Z,71.10
2018-12-06T22:30:48.984Z,71.80
2018-12-06T22:33:18.292Z,72.00
2018-12-06T22:35:47.560Z,71.70
2018-12-06T22:38:16.813Z,71.60
2018-12-06T22:40:46.186Z,72.30
2018-12-06T22:43:15.393Z,72.30
2018-12-06T22:45:55.857Z,72.70
2018-12-06T22:48:25.383Z,73.50
2018-12-06T22:50:54.766Z,73.30
2018-12-06T22:53:24.061Z,72.80
2018-12-06T22:55:53.442Z,72.30
2018-12-06T22:58:22.874Z,72.90
2018-12-06T23:00:53.140Z,73.30
2018-12-06T23:03:23.694Z,73.30
2018-12-06T23:05:53.329Z,73.10
2018-12-06T23:08:25.438Z,73.10
2018-12-06T23:10:54.747Z,73.30
2018-12-06T23:13:24.049Z,73.50
2018-12-06T23:15:53.324Z,74.20
2018-12-06T23:18:23.020Z,74.50
2018-12-06T23:20:52.215Z,74.80
2018-12-06T23:23:21.420Z,75.90
2018-12-06T23:25:50.697Z,76.60
2018-12-06T23:28:20.530Z,77.20
2018-12-06T23:30:49.903Z,77.50
2018-12-06T23:33:19.128Z,78.10
2018-12-06T23:35:48.334Z,78.40
2018-12-06T23:38:17.537Z,79.00
2018-12-06T23:40:46.776Z,79.60
2018-12-06T23:43:16.010Z,79.90
2018-12-06T23:45:45.570Z,80.00
2018-12-06T23:48:15.124Z,80.10
2018-12-06T23:50:44.418Z,80.10
2018-12-06T23:53:13.815Z,80.10
2018-12-06T23:55:43.002Z,80.00
2018-12-06T23:58:12.242Z,79.40
